Time;durP1;ratioP1;P1;durP2;ratioP2;P2;SDS_P1;SDS_P2;PMS_P1;PMS_P2;Temp;Humidity;BMP_temperature;BMP_pressure;BME280_temperature;BME280_humidity;BME280_pressure;Samples;Min_cycle;Max_cycle;Signal;HPM_P1;HPM_P2
2023/01/10 00:02:17;;;;;;;48.27;27.57;;;;;;;-143.84;100.00;44226.56;5092360;28;20435;-79
2023/01/10 00:04:44;;;;;;;57.43;30.20;;;;;;;-143.84;100.00;44236.09;5092675;28;20972;-79
2023/01/10 00:07:11;;;;;;;55.20;30.17;;;;;;;-143.84;100.00;44245.59;5092511;28;20895;-79
2023/01/10 00:09:38;;;;;;;60.33;31.20;;;;;;;-143.84;100.00;44241.81;5092073;28;20444;-79
2023/01/10 00:14:52;;;;;;;60.17;32.30;;;;;;;-143.84;100.00;44268.44;5092472;28;20471;-79
2023/01/10 00:17:19;;;;;;;61.67;32.73;;;;;;;-143.84;100.00;44279.88;5092133;28;20426;-79
2023/01/10 00:19:47;;;;;;;61.27;30.50;;;;;;;-143.84;100.00;44285.59;5088724;28;20458;-78
2023/01/10 00:22:23;;;;;;;71.00;34.03;;;;;;;-143.84;100.00;44295.09;5071952;28;20444;-78
2023/01/10 00:24:51;;;;;;;64.00;32.87;;;;;;;-143.84;100.00;44312.25;5072051;28;20514;-78
2023/01/10 00:27:22;;;;;;;70.13;33.70;;;;;;;-143.84;100.00;44336.97;5074544;28;20438;-78
2023/01/10 00:29:51;;;;;;;73.73;35.73;;;;;;;-143.84;100.00;44346.50;5075433;28;20521;-78
2023/01/10 00:32:18;;;;;;;72.73;32.83;;;;;;;-143.84;100.00;44361.72;5085050;28;20553;-78
2023/01/10 00:34:46;;;;;;;86.00;34.63;;;;;;;-143.84;100.00;44373.16;5096136;28;20789;-78
2023/01/10 00:37:13;;;;;;;65.17;35.70;;;;;;;-143.84;100.00;44386.47;5095665;28;20504;-78
2023/01/10 00:39:40;;;;;;;91.43;35.57;;;;;;;-143.84;100.00;44413.13;5095761;28;20438;-78
2023/01/10 00:44:53;;;;;;;70.87;36.87;;;;;;;-143.84;100.00;44443.59;5095338;28;20410;-79
2023/01/10 00:47:20;;;;;;;80.67;35.90;;;;;;;-143.84;100.00;44462.63;5095322;28;20861;-78
2023/01/10 00:49:47;;;;;;;73.03;35.00;;;;;;;-143.84;100.00;44477.88;5095309;28;20433;-78
2023/01/10 00:52:14;;;;;;;87.17;38.23;;;;;;;-143.84;100.00;44479.78;5095192;28;20467;-79
2023/01/10 00:54:41;;;;;;;79.00;38.70;;;;;;;-143.84;100.00;44481.69;5095622;28;20440;-79
2023/01/10 00:57:08;;;;;;;74.33;34.83;;;;;;;-143.84;100.00;44493.09;5095591;28;20430;-79
2023/01/10 00:59:35;;;;;;;76.03;34.30;;;;;;;-143.84;100.00;44495.00;5094916;28;20444;-79
2023/01/10 01:02:04;;;;;;;69.83;35.70;;;;;;;-143.84;100.00;44496.91;5094924;28;20440;-78
2023/01/10 01:04:34;;;;;;;77.33;35.97;;;;;;;-143.84;100.00;44498.81;5095529;28;20445;-78
2023/01/10 01:07:01;;;;;;;73.30;36.37;;;;;;;-143.84;100.00;44500.72;5094930;28;20434;-79
2023/01/10 01:09:29;;;;;;;82.50;33.93;;;;;;;-143.84;100.00;44498.81;5095060;28;20874;-79
2023/01/10 01:11:56;;;;;;;74.23;37.03;;;;;;;-143.84;100.00;44498.81;5093652;28;20548;-79
2023/01/10 01:14:24;;;;;;;78.47;36.90;;;;;;;-143.84;100.00;44498.81;5094771;28;20435;-79
2023/01/10 01:16:51;;;;;;;77.50;36.37;;;;;;;-143.84;100.00;44504.53;5094263;28;20447;-79
2023/01/10 01:19:20;;;;;;;73.07;36.37;;;;;;;-143.84;100.00;44504.53;5094497;28;20432;-79
2023/01/10 01:21:47;;;;;;;81.27;40.00;;;;;;;-143.84;100.00;44498.81;5094178;28;20481;-79
2023/01/10 01:24:14;;;;;;;73.33;34.63;;;;;;;-143.84;100.00;44502.63;5094374;28;20435;-78
2023/01/10 01:26:41;;;;;;;81.13;34.87;;;;;;;-143.84;100.00;44498.81;5094692;28;20423;-78
2023/01/10 01:29:10;;;;;;;84.23;35.53;;;;;;;-143.84;100.00;44502.63;5094160;28;20856;-78
2023/01/10 01:31:37;;;;;;;79.57;38.03;;;;;;;-143.84;100.00;44496.91;5093132;28;20528;-78
2023/01/10 01:34:04;;;;;;;72.17;36.43;;;;;;;-143.84;100.00;44500.72;5094491;28;20481;-78
2023/01/10 01:36:32;;;;;;;71.70;35.43;;;;;;;-143.84;100.00;44502.63;5094388;28;20491;-78
2023/01/10 01:38:59;;;;;;;90.23;34.47;;;;;;;-143.84;100.00;44502.63;5093163;28;20436;-78
2023/01/10 01:44:15;;;;;;;91.77;37.20;;;;;;;-143.84;100.00;44504.53;5094964;28;20429;-78
2023/01/10 01:46:45;;;;;;;73.07;35.20;;;;;;;-143.84;100.00;44495.00;5094393;28;20523;-78
2023/01/10 01:49:17;;;;;;;84.23;34.13;;;;;;;-143.84;100.00;44502.63;5094390;28;20431;-78
2023/01/10 01:51:48;;;;;;;77.37;34.50;;;;;;;-143.84;100.00;44502.63;5094380;28;20982;-78
2023/01/10 01:54:17;;;;;;;84.83;33.53;;;;;;;-143.84;100.00;44500.72;5094672;28;20445;-78
2023/01/10 01:56:50;;;;;;;68.00;33.53;;;;;;;-143.84;100.00;44500.72;5094622;28;20490;-78
2023/01/10 01:59:20;;;;;;;68.00;32.50;;;;;;;-143.84;100.00;44504.53;5094412;28;20519;-78
2023/01/10 02:01:52;;;;;;;58.93;32.63;;;;;;;-143.84;100.00;44504.53;5094180;28;20435;-78
2023/01/10 02:04:22;;;;;;;72.30;33.50;;;;;;;-143.84;100.00;44504.53;5094342;28;20442;-79
2023/01/10 02:06:53;;;;;;;65.43;32.80;;;;;;;-143.84;100.00;44502.63;5094527;28;20426;-79
2023/01/10 02:09:26;;;;;;;74.30;29.93;;;;;;;-143.84;100.00;44504.53;5094084;28;20442;-79
2023/01/10 02:11:54;;;;;;;79.60;29.50;;;;;;;-143.84;100.00;44498.81;5093901;28;20532;-79
2023/01/10 02:14:24;;;;;;;62.93;29.17;;;;;;;-143.84;100.00;44504.53;5093327;28;20447;-79
2023/01/10 02:16:52;;;;;;;58.47;28.73;;;;;;;-143.84;100.00;44504.53;5094129;28;20436;-78
2023/01/10 02:19:31;;;;;;;77.03;28.10;;;;;;;-143.84;100.00;44504.53;5093322;28;20477;-78
2023/01/10 02:22:40;;;;;;;62.03;28.80;;;;;;;-143.84;100.00;44502.63;5092671;28;20463;-78
2023/01/10 02:25:42;;;;;;;53.87;26.43;;;;;;;-143.84;100.00;44498.81;5091136;28;20964;-78
2023/01/10 02:28:48;;;;;;;56.90;26.43;;;;;;;-143.84;100.00;44496.91;5091365;28;20501;-78
2023/01/10 02:31:40;;;;;;;51.70;25.30;;;;;;;-143.84;100.00;44496.91;5093738;28;20503;-78
2023/01/10 02:34:20;;;;;;;61.23;27.37;;;;;;;-143.84;100.00;44500.72;5093368;28;20489;-78
2023/01/10 02:36:56;;;;;;;61.17;27.20;;;;;;;-143.84;100.00;44500.72;5093076;28;20500;-78
2023/01/10 02:39:32;;;;;;;55.60;27.20;;;;;;;-143.84;100.00;44500.72;5093207;28;20480;-78
2023/01/10 02:42:05;;;;;;;57.97;25.40;;;;;;;-143.84;100.00;44500.72;5092735;28;20430;-79
2023/01/10 02:44:41;;;;;;;56.97;21.77;;;;;;;-143.84;100.00;44500.72;5093288;28;20431;-79
2023/01/10 02:47:09;;;;;;;63.43;26.27;;;;;;;-143.84;100.00;44498.81;5093385;28;20518;-79
2023/01/10 02:49:44;;;;;;;64.47;28.03;;;;;;;-143.84;100.00;44500.72;5092584;28;20439;-79
2023/01/10 02:52:13;;;;;;;61.60;26.93;;;;;;;-143.84;100.00;44496.91;5093168;28;20566;-78
2023/01/10 02:54:41;;;;;;;60.10;28.10;;;;;;;-143.84;100.00;44498.81;5093557;28;20498;-79
2023/01/10 02:57:35;;;;;;;62.67;29.67;;;;;;;-143.84;100.00;44502.63;5092901;28;20493;-79
2023/01/10 03:00:15;;;;;;;59.47;27.63;;;;;;;-143.84;100.00;44500.72;5093307;28;20495;-78
2023/01/10 03:03:00;;;;;;;59.53;27.60;;;;;;;-143.84;100.00;44493.09;5093172;28;20502;-79
2023/01/10 03:05:42;;;;;;;53.00;27.20;;;;;;;-143.84;100.00;44493.09;5093047;28;20952;-79
2023/01/10 03:08:24;;;;;;;66.57;25.60;;;;;;;-143.84;100.00;44495.00;5093033;28;20439;-78
2023/01/10 03:10:56;;;;;;;67.50;25.43;;;;;;;-143.84;100.00;44495.00;5092578;28;20482;-79
2023/01/10 03:13:29;;;;;;;93.33;28.03;;;;;;;-143.84;100.00;44495.00;5092935;28;20471;-79
2023/01/10 03:15:58;;;;;;;60.70;26.27;;;;;;;-143.84;100.00;44498.81;5092843;28;20999;-79
2023/01/10 03:18:31;;;;;;;50.70;26.23;;;;;;;-143.84;100.00;44496.91;5092802;28;20447;-79
2023/01/10 03:21:03;;;;;;;65.07;26.83;;;;;;;-143.84;100.00;44495.00;5093264;28;20518;-79
2023/01/10 03:23:33;;;;;;;59.63;29.30;;;;;;;-143.84;100.00;44498.81;5093015;28;20500;-79
2023/01/10 03:26:01;;;;;;;76.00;29.07;;;;;;;-143.84;100.00;44496.91;5092421;28;20442;-79
2023/01/10 03:28:32;;;;;;;63.07;29.90;;;;;;;-143.84;100.00;44498.81;5092903;28;20913;-79
2023/01/10 03:31:03;;;;;;;65.37;30.00;;;;;;;-143.84;100.00;44496.91;5092820;28;20445;-79
2023/01/10 03:33:33;;;;;;;62.13;28.90;;;;;;;-143.84;100.00;44498.81;5092438;28;20532;-79
2023/01/10 03:36:15;;;;;;;61.03;30.70;;;;;;;-143.84;100.00;44496.91;5092634;28;20428;-78
2023/01/10 03:38:47;;;;;;;74.70;30.00;;;;;;;-143.84;100.00;44498.81;5092517;28;20440;-80
2023/01/10 03:41:17;;;;;;;74.90;29.27;;;;;;;-143.84;100.00;44491.19;5092208;28;20447;-80
2023/01/10 03:46:42;;;;;;;63.53;28.10;;;;;;;-143.84;100.00;44487.38;5092953;28;20406;-80
2023/01/10 03:49:13;;;;;;;72.63;30.07;;;;;;;-143.84;100.00;44487.38;5093041;28;20439;-80
2023/01/10 03:51:43;;;;;;;69.73;30.60;;;;;;;-143.84;100.00;44489.28;5093571;28;20440;-80
2023/01/10 03:54:11;;;;;;;56.17;27.33;;;;;;;-143.84;100.00;44489.28;5092916;28;20435;-80
2023/01/10 03:56:45;;;;;;;49.57;29.87;;;;;;;-143.84;100.00;44487.38;5093181;28;20442;-80
2023/01/10 03:59:12;;;;;;;60.27;30.73;;;;;;;-143.84;100.00;44487.38;5093008;28;20427;-78
2023/01/10 04:01:39;;;;;;;69.53;31.50;;;;;;;-143.84;100.00;44493.09;5094502;28;20850;-80
2023/01/10 04:04:06;;;;;;;69.13;30.60;;;;;;;-143.84;100.00;44489.28;5096595;28;20435;-77
2023/01/10 04:06:34;;;;;;;67.07;32.80;;;;;;;-143.84;100.00;44491.19;5096672;28;20488;-76
2023/01/10 04:09:02;;;;;;;80.67;31.53;;;;;;;-143.84;100.00;44489.28;5095737;28;20430;-77
2023/01/10 04:11:29;;;;;;;58.30;31.10;;;;;;;-143.84;100.00;44487.38;5095924;28;20494;-77
2023/01/10 04:13:57;;;;;;;72.10;31.37;;;;;;;-143.84;100.00;44487.38;5096254;28;20479;-76
2023/01/10 04:16:24;;;;;;;71.27;32.70;;;;;;;-143.84;100.00;44487.38;5096251;28;20489;-77
2023/01/10 04:18:51;;;;;;;83.50;30.27;;;;;;;-143.84;100.00;44487.38;5096000;28;20438;-76
2023/01/10 04:21:19;;;;;;;59.30;31.10;;;;;;;-143.84;100.00;44491.19;5095976;28;20436;-76
2023/01/10 04:23:46;;;;;;;56.97;31.10;;;;;;;-143.84;100.00;44489.28;5096826;28;20435;-77
2023/01/10 04:26:14;;;;;;;72.63;32.70;;;;;;;-143.84;100.00;44489.28;5095677;28;20477;-76
2023/01/10 04:28:41;;;;;;;70.37;33.80;;;;;;;-143.84;100.00;44489.28;5094919;28;20449;-77
2023/01/10 04:31:08;;;;;;;58.20;30.17;;;;;;;-143.84;100.00;44491.19;5095652;28;20474;-77
2023/01/10 04:33:37;;;;;;;79.27;33.57;;;;;;;-143.84;100.00;44489.28;5095688;28;20467;-77
2023/01/10 04:36:05;;;;;;;59.13;30.63;;;;;;;-143.84;100.00;44491.19;5095933;28;20482;-74
2023/01/10 04:38:32;;;;;;;64.57;30.87;;;;;;;-143.84;100.00;44496.91;5095970;28;20955;-76
2023/01/10 04:40:59;;;;;;;61.87;30.77;;;;;;;-143.84;100.00;44496.91;5095813;28;20428;-75
2023/01/10 04:43:28;;;;;;;67.03;31.63;;;;;;;-143.84;100.00;44496.91;5095741;28;20490;-77
2023/01/10 04:45:55;;;;;;;63.50;31.13;;;;;;;-143.84;100.00;44493.09;5095416;28;20501;-77
2023/01/10 04:48:22;;;;;;;71.63;31.33;;;;;;;-143.84;100.00;44485.47;5095707;28;20497;-77
2023/01/10 04:50:51;;;;;;;63.87;29.43;;;;;;;-143.84;100.00;44479.78;5096184;28;20929;-79
2023/01/10 04:53:18;;;;;;;58.97;27.23;;;;;;;-143.84;100.00;44472.16;5095191;28;20566;-76
2023/01/10 04:55:45;;;;;;;59.93;28.30;;;;;;;-143.84;100.00;44458.81;5094468;28;20496;-75
2023/01/10 04:58:12;;;;;;;65.53;29.60;;;;;;;-143.84;100.00;44455.03;5094837;28;20520;-76
2023/01/10 05:00:41;;;;;;;60.33;28.37;;;;;;;-143.84;100.00;44445.50;5095331;28;20473;-75
2023/01/10 05:03:08;;;;;;;63.13;27.57;;;;;;;-143.84;99.86;44441.69;5095246;28;20455;-77
2023/01/10 05:05:36;;;;;;;64.83;27.20;;;;;;;-143.84;99.85;44439.78;5095531;28;20829;-78
2023/01/10 05:08:03;;;;;;;58.37;28.07;;;;;;;-143.84;99.83;44437.88;5094969;28;20434;-78
2023/01/10 05:10:30;;;;;;;57.07;26.23;;;;;;;-143.84;99.78;44434.09;5094861;28;20552;-77
2023/01/10 05:12:58;;;;;;;48.30;27.10;;;;;;;-143.84;99.81;44428.38;5094900;28;20459;-77
2023/01/10 05:15:25;;;;;;;50.17;26.40;;;;;;;-143.84;99.70;44430.28;5095363;28;20434;-77
2023/01/10 05:18:00;;;;;;;59.33;27.20;;;;;;;-143.84;99.83;44430.28;5095066;28;20504;-76
2023/01/10 05:20:27;;;;;;;65.73;26.70;;;;;;;-143.84;99.76;44435.97;5095457;28;20431;-78
2023/01/10 05:22:54;;;;;;;55.50;27.03;;;;;;;-143.84;99.79;44430.28;5096111;28;20436;-76
2023/01/10 05:25:21;;;;;;;66.87;27.47;;;;;;;-143.84;99.62;44424.56;5094683;28;20490;-76
2023/01/10 05:27:48;;;;;;;51.13;27.17;;;;;;;-143.84;99.87;44434.09;5094302;28;20438;-76
2023/01/10 05:30:16;;;;;;;64.70;26.93;;;;;;;-143.84;99.88;44434.09;5093710;28;20433;-76
2023/01/10 05:32:43;;;;;;;59.47;28.73;;;;;;;-143.84;99.72;44424.56;5092626;28;20541;-76
2023/01/10 05:35:11;;;;;;;52.20;25.83;;;;;;;-143.84;99.52;44418.84;5097702;28;20535;-76
2023/01/10 05:37:40;;;;;;;50.50;23.97;;;;;;;-143.84;99.39;44413.13;5095075;28;20502;-77
2023/01/10 05:40:08;;;;;;;67.87;25.93;;;;;;;-143.84;99.12;44386.47;5094073;28;20963;-78
2023/01/10 05:42:35;;;;;;;53.37;24.40;;;;;;;-143.84;99.03;44382.69;5093992;28;20836;-78
2023/01/10 05:45:03;;;;;;;56.00;28.13;;;;;;;-143.84;99.07;44380.78;5093465;28;20465;-78
2023/01/10 05:47:30;;;;;;;45.63;25.63;;;;;;;-143.84;98.96;44388.38;5092386;28;20464;-78
2023/01/10 05:49:58;;;;;;;62.10;26.70;;;;;;;-143.84;98.70;44378.88;5093743;28;20470;-78
2023/01/10 05:52:26;;;;;;;48.77;24.90;;;;;;;-143.84;98.50;44342.69;5093578;28;20434;-77
2023/01/10 05:54:53;;;;;;;58.87;24.73;;;;;;;-143.84;98.12;44308.44;5093048;28;20494;-78
2023/01/10 05:57:21;;;;;;;48.27;23.37;;;;;;;-143.84;97.60;44285.59;5093913;28;20424;-77
2023/01/10 05:59:48;;;;;;;60.93;23.70;;;;;;;-143.84;97.49;44266.53;5093899;28;20488;-77
2023/01/10 06:02:15;;;;;;;48.73;20.90;;;;;;;-143.84;96.90;44236.09;5093741;28;20783;-78
2023/01/10 06:04:42;;;;;;;44.67;20.07;;;;;;;-143.84;95.98;44203.72;5094109;28;20437;-79
2023/01/10 06:07:10;;;;;;;59.63;22.20;;;;;;;-143.84;95.80;44192.31;5094053;28;20490;-79
2023/01/10 06:09:38;;;;;;;42.80;21.83;;;;;;;-143.84;95.59;44188.50;5093525;28;20493;-79
2023/01/10 06:12:05;;;;;;;42.60;21.90;;;;;;;-143.84;95.39;44177.06;5093615;28;20540;-79
2023/01/10 06:14:33;;;;;;;43.17;21.10;;;;;;;-143.84;95.36;44173.25;5093970;28;20480;-80
2023/01/10 06:17:00;;;;;;;50.30;22.33;;;;;;;-143.84;94.62;44161.84;5092526;28;20441;-78
2023/01/10 06:19:27;;;;;;;38.83;19.83;;;;;;;-143.84;94.61;44148.53;5094015;28;20482;-79
2023/01/10 06:21:54;;;;;;;38.27;19.30;;;;;;;-143.84;94.11;44146.63;5094045;28;20921;-79
2023/01/10 06:24:21;;;;;;;39.23;20.10;;;;;;;-143.84;94.30;44150.41;5092823;28;21211;-76
2023/01/10 06:26:49;;;;;;;40.40;20.40;;;;;;;-143.84;94.28;44152.31;5089847;28;20454;-76
2023/01/10 06:29:17;;;;;;;44.63;19.53;;;;;;;-143.84;94.14;44150.41;5092308;28;20452;-77
2023/01/10 06:31:44;;;;;;;41.23;21.13;;;;;;;-143.84;94.14;44152.31;5092795;28;20443;-77
2023/01/10 06:34:11;;;;;;;35.63;20.70;;;;;;;-143.84;93.88;44142.81;5092815;28;20503;-78
2023/01/10 06:36:38;;;;;;;57.77;22.10;;;;;;;-143.84;93.29;44123.78;5092018;28;20939;-77
2023/01/10 06:39:06;;;;;;;43.87;20.40;;;;;;;-143.84;93.20;44133.28;5092149;28;20882;-78
2023/01/10 06:41:33;;;;;;;35.73;18.73;;;;;;;-143.84;92.68;44116.16;5092307;28;20509;-78
2023/01/10 06:44:01;;;;;;;34.53;19.43;;;;;;;-143.84;92.42;44114.25;5092592;28;20452;-78
2023/01/10 06:46:28;;;;;;;45.60;20.77;;;;;;;-143.84;91.95;44085.69;5092453;28;20449;-78
2023/01/10 06:48:55;;;;;;;38.17;21.00;;;;;;;-143.84;91.64;44078.09;5092626;28;20514;-78
2023/01/10 06:51:22;;;;;;;39.87;19.17;;;;;;;-143.84;92.20;44108.53;5092854;28;20943;-74
2023/01/10 06:53:49;;;;;;;45.00;19.70;;;;;;;-143.84;92.32;44100.94;5092676;28;21093;-74
2023/01/10 06:56:17;;;;;;;38.77;19.07;;;;;;;-143.84;92.54;44104.72;5093766;28;20425;-74
2023/01/10 06:58:44;;;;;;;43.03;19.30;;;;;;;-143.84;92.55;44110.44;5093323;28;20446;-74
2023/01/10 07:01:17;;;;;;;36.87;19.97;;;;;;;-143.84;92.78;44118.06;5093411;28;20436;-74
2023/01/10 07:03:47;;;;;;;41.10;20.60;;;;;;;-143.84;92.78;44112.34;5092912;28;20456;-74
2023/01/10 07:06:15;;;;;;;47.53;20.97;;;;;;;-143.84;92.99;44116.16;5092305;28;20966;-74
2023/01/10 07:08:44;;;;;;;38.20;19.60;;;;;;;-143.84;92.82;44118.06;5091784;28;20445;-73
2023/01/10 07:11:12;;;;;;;51.93;22.63;;;;;;;-143.84;93.13;44129.47;5092000;28;20496;-74
2023/01/10 07:13:40;;;;;;;47.93;21.83;;;;;;;-143.84;92.86;44106.63;5091905;28;20895;-73
2023/01/10 07:16:08;;;;;;;45.43;21.57;;;;;;;-143.84;93.25;44125.69;5091870;28;20946;-73
2023/01/10 07:18:39;;;;;;;40.20;22.30;;;;;;;-143.84;93.35;44118.06;5091833;28;20450;-73
2023/01/10 07:21:06;;;;;;;48.60;22.97;;;;;;;-143.84;93.47;44116.16;5092294;28;20451;-73
2023/01/10 07:23:34;;;;;;;54.37;21.70;;;;;;;-143.84;93.56;44139.00;5091452;28;20806;-73
2023/01/10 07:26:03;;;;;;;62.43;20.83;;;;;;;-143.84;93.68;44139.00;5089681;28;20456;-74
2023/01/10 07:28:30;;;;;;;41.23;21.37;;;;;;;-143.84;93.53;44129.47;5092656;28;20447;-74
2023/01/10 07:30:59;;;;;;;44.83;20.73;;;;;;;-143.84;93.37;44118.06;5092006;28;20978;-73
2023/01/10 07:33:26;;;;;;;40.83;19.50;;;;;;;-143.84;93.25;44121.88;5091083;28;20511;-75
2023/01/10 07:35:55;;;;;;;39.73;24.10;;;;;;;-143.84;93.21;44116.16;5091969;28;20497;-74
2023/01/10 07:38:22;;;;;;;43.33;20.63;;;;;;;-143.84;92.90;44127.56;5091859;28;20785;-74
2023/01/10 07:40:49;;;;;;;45.30;21.90;;;;;;;-143.84;92.93;44118.06;5091852;28;20674;-74
2023/01/10 07:43:16;;;;;;;49.17;22.87;;;;;;;-143.84;93.25;44123.78;5092425;28;20933;-73
2023/01/10 07:45:43;;;;;;;52.20;21.60;;;;;;;-143.84;93.00;44114.25;5092306;28;20484;-73
2023/01/10 07:48:11;;;;;;;50.60;22.77;;;;;;;-143.84;92.74;44114.25;5092354;28;20441;-73
2023/01/10 07:50:39;;;;;;;41.40;21.30;;;;;;;-143.84;92.31;44104.72;5092776;28;20777;-75
2023/01/10 07:53:08;;;;;;;54.17;22.00;;;;;;;-143.84;92.47;44110.44;5092144;28;20427;-75
2023/01/10 07:55:38;;;;;;;43.73;22.30;;;;;;;-143.84;92.69;44106.63;5092352;28;20441;-77
2023/01/10 07:58:07;;;;;;;74.87;24.70;;;;;;;-143.84;93.13;44125.69;5092192;28;20443;-74
2023/01/10 08:00:34;;;;;;;38.50;20.80;;;;;;;-143.84;92.66;44108.53;5092249;28;20455;-76
2023/01/10 08:03:02;;;;;;;55.30;19.50;;;;;;;-143.84;92.38;44106.63;5091661;28;20429;-73
2023/01/10 08:05:29;;;;;;;51.60;22.93;;;;;;;-143.84;92.09;44102.84;5092155;28;20439;-73
2023/01/10 08:07:58;;;;;;;39.50;20.33;;;;;;;-143.84;91.91;44089.50;5091993;28;20424;-74
2023/01/10 08:10:27;;;;;;;49.50;21.33;;;;;;;-143.84;91.38;44070.47;5091914;28;20523;-77
2023/01/10 08:12:55;;;;;;;43.13;19.73;;;;;;;-143.84;90.93;44074.28;5091659;28;20958;-75
2023/01/10 08:15:22;;;;;;;53.60;19.83;;;;;;;-143.84;90.20;44043.81;5091553;28;20491;-74
2023/01/10 08:17:49;;;;;;;44.37;21.10;;;;;;;-143.84;90.03;44030.50;5092106;28;20431;-74
2023/01/10 08:20:16;;;;;;;51.50;21.23;;;;;;;-143.84;90.35;44051.44;5092023;28;20445;-75
2023/01/10 08:22:43;;;;;;;46.87;19.77;;;;;;;-143.84;90.32;44051.44;5091065;28;20448;-75
2023/01/10 08:25:11;;;;;;;38.30;17.97;;;;;;;-143.84;90.69;44055.25;5091428;28;20445;-74
2023/01/10 08:27:40;;;;;;;44.97;20.80;;;;;;;-143.84;90.53;44043.81;5091163;28;20445;-74
2023/01/10 08:30:08;;;;;;;52.07;23.30;;;;;;;-143.84;90.74;44057.16;5090859;28;20788;-74
2023/01/10 08:32:35;;;;;;;48.73;21.93;;;;;;;-143.84;90.13;44047.63;5090804;28;20453;-75
2023/01/10 08:35:02;;;;;;;54.37;22.83;;;;;;;-143.84;89.92;44028.59;5090775;28;20480;-74
2023/01/10 08:37:29;;;;;;;29.77;18.80;;;;;;;-143.84;89.47;44030.50;5090015;28;20449;-79
2023/01/10 08:39:57;;;;;;;41.83;18.83;;;;;;;-143.84;89.29;44005.75;5089381;28;20441;-77
2023/01/10 08:42:24;;;;;;;38.70;19.70;;;;;;;-143.84;89.30;44001.94;5090003;28;20465;-76
2023/01/10 08:44:53;;;;;;;36.50;21.80;;;;;;;-143.84;89.04;44001.94;5090868;28;20453;-77
2023/01/10 08:47:20;;;;;;;39.73;20.17;;;;;;;-143.84;88.96;44001.94;5091593;28;20518;-76
2023/01/10 08:49:48;;;;;;;41.07;21.50;;;;;;;-143.84;89.26;43994.31;5094789;28;20445;-75
2023/01/10 08:52:16;;;;;;;37.53;21.03;;;;;;;-143.84;89.29;44007.66;5094270;28;20446;-75
2023/01/10 08:54:43;;;;;;;39.67;20.47;;;;;;;-143.84;88.96;44015.25;5094401;28;20478;-76
2023/01/10 08:57:10;;;;;;;41.30;22.53;;;;;;;-143.84;89.02;44005.75;5095118;28;20507;-76
2023/01/10 08:59:38;;;;;;;47.43;22.77;;;;;;;-143.84;88.76;43988.63;5094905;28;20444;-76
2023/01/10 09:02:11;;;;;;;37.93;21.87;;;;;;;-143.84;88.91;44003.84;5094663;28;20849;-76
2023/01/10 09:04:38;;;;;;;31.33;20.93;;;;;;;-143.84;89.21;44022.88;5094380;28;20804;-76
2023/01/10 09:07:06;;;;;;;41.60;21.17;;;;;;;-143.84;89.55;44028.59;5094203;28;20450;-76
2023/01/10 09:09:33;;;;;;;53.03;20.93;;;;;;;-143.84;89.87;44043.81;5094591;28;20513;-76
2023/01/10 09:12:00;;;;;;;45.50;22.10;;;;;;;-143.84;90.32;44053.34;5091042;28;21288;-79
2023/01/10 09:14:27;;;;;;;39.67;20.30;;;;;;;-143.84;89.66;44030.50;5093965;28;20558;-79
2023/01/10 09:16:54;;;;;;;47.60;21.57;;;;;;;-143.84;89.63;44020.97;5093817;28;20456;-77
2023/01/10 09:19:23;;;;;;;38.70;21.57;;;;;;;-143.84;89.66;44013.38;5094216;28;20453;-80
2023/01/10 09:21:50;;;;;;;33.33;19.63;;;;;;;-143.84;88.82;44007.66;5093949;28;20466;-79
2023/01/10 09:24:18;;;;;;;42.80;20.60;;;;;;;-143.84;88.01;43984.81;5093598;28;20450;-78
2023/01/10 09:26:45;;;;;;;44.70;19.50;;;;;;;-143.84;87.35;43952.44;5093692;28;20446;-78
2023/01/10 09:29:12;;;;;;;36.27;19.03;;;;;;;-143.84;87.43;43948.63;5093670;28;20798;-78
2023/01/10 09:31:39;;;;;;;38.50;19.60;;;;;;;-143.84;87.10;43954.34;5093330;28;20465;-78
2023/01/10 09:34:06;;;;;;;38.17;20.70;;;;;;;-143.84;86.59;43948.63;5093116;28;20476;-78
2023/01/10 09:36:35;;;;;;;38.40;17.20;;;;;;;-143.84;85.56;43908.66;5089789;28;20495;-78
2023/01/10 09:39:03;;;;;;;35.70;18.00;;;;;;;-143.84;85.47;43929.59;5092787;28;20517;-78
2023/01/10 09:41:59;;;;;;;32.20;18.20;;;;;;;-143.84;85.28;43935.31;5092966;28;20451;-78
2023/01/10 09:44:37;;;;;;;40.67;18.60;;;;;;;-143.84;84.34;43899.16;5093030;28;21010;-78
2023/01/10 09:47:16;;;;;;;40.73;19.53;;;;;;;-143.84;84.70;43910.56;5093162;28;20461;-78
2023/01/10 09:49:48;;;;;;;42.77;18.43;;;;;;;-143.84;85.22;43910.56;5093067;28;20475;-78
2023/01/10 09:52:23;;;;;;;43.63;18.50;;;;;;;-143.84;85.54;43937.22;5090416;28;20561;-78
2023/01/10 09:54:54;;;;;;;46.03;16.93;;;;;;;-143.84;85.41;43918.19;5093338;28;20479;-78
2023/01/10 09:57:23;;;;;;;39.57;16.67;;;;;;;-143.84;85.09;43933.41;5093295;28;20446;-78
2023/01/10 09:59:53;;;;;;;32.50;17.27;;;;;;;-143.84;84.92;43937.22;5091407;28;20454;-78
2023/01/10 10:02:29;;;;;;;30.80;16.40;;;;;;;-143.84;84.46;43889.63;5092651;28;20944;-78
2023/01/10 10:05:07;;;;;;;25.73;14.33;;;;;;;-143.84;83.52;43851.56;5093212;28;20446;-77
2023/01/10 10:07:36;;;;;;;49.70;17.10;;;;;;;-143.84;82.57;43849.66;5093629;28;20504;-78
2023/01/10 10:10:05;;;;;;;30.53;15.63;;;;;;;-143.84;81.03;43872.50;5092821;28;20481;-77
2023/01/10 10:12:42;;;;;;;29.80;15.40;;;;;;;-143.84;79.91;43977.19;5092318;28;20852;-78
2023/01/10 10:15:18;;;;;;;26.90;14.70;;;;;;;-143.84;79.28;44055.25;5090533;28;21057;-77
2023/01/10 10:17:53;;;;;;;34.70;15.03;;;;;;;-143.84;79.11;44070.47;5093059;28;20499;-80
2023/01/10 10:20:31;;;;;;;36.97;16.17;;;;;;;-143.84;79.89;43975.28;5092643;28;20488;-78
2023/01/10 10:23:16;;;;;;;40.33;16.50;;;;;;;-143.84;80.79;43895.34;5093211;28;20443;-79
2023/01/10 10:25:56;;;;;;;31.70;18.40;;;;;;;-143.84;81.07;43880.13;5091450;28;20875;-78
2023/01/10 10:28:38;;;;;;;38.73;16.90;;;;;;;-143.84;81.08;43864.88;5092288;28;20437;-78
2023/01/10 10:31:16;;;;;;;31.80;16.20;;;;;;;-143.84;80.79;43899.16;5089256;28;20447;-78
2023/01/10 10:33:55;;;;;;;34.93;16.00;;;;;;;-143.84;80.31;43920.09;5092854;28;20444;-78
2023/01/10 10:36:27;;;;;;;34.50;15.00;;;;;;;-143.84;80.08;43977.19;5091263;28;20456;-78
2023/01/10 10:39:00;;;;;;;30.93;14.70;;;;;;;-143.84;79.76;44000.03;5092190;28;20794;-74
2023/01/10 10:41:32;;;;;;;24.37;13.83;;;;;;;-143.84;79.77;43981.00;5093019;28;20461;-78
2023/01/10 10:44:03;;;;;;;30.73;14.43;;;;;;;-143.84;80.09;44053.34;5088677;28;20544;-78
2023/01/10 10:46:32;;;;;;;33.37;16.00;;;;;;;-143.84;80.33;44007.66;5092802;28;20479;-79
2023/01/10 10:49:02;;;;;;;30.13;14.63;;;;;;;-143.84;79.92;44055.25;5092417;28;20875;-79
2023/01/10 10:51:39;;;;;;;28.53;13.53;;;;;;;-143.84;80.15;44020.97;5092764;28;20443;-78
2023/01/10 10:54:11;;;;;;;44.40;15.90;;;;;;;-143.84;79.99;44001.94;5092390;28;20457;-78
2023/01/10 10:56:39;;;;;;;47.17;15.73;;;;;;;-143.84;80.08;43990.53;5089245;28;20452;-78
2023/01/10 10:59:07;;;;;;;33.30;15.23;;;;;;;-143.84;80.00;44000.03;5092138;28;20459;-78
2023/01/10 11:01:34;;;;;;;29.83;14.50;;;;;;;-143.84;79.31;44135.19;5092038;28;20820;-78
2023/01/10 11:04:05;;;;;;;27.00;14.43;;;;;;;-143.84;78.49;44340.78;5091160;28;20510;-78
2023/01/10 11:06:37;;;;;;;34.80;14.70;;;;;;;-143.84;78.31;44378.88;5091494;28;20820;-78
2023/01/10 11:09:07;;;;;;;30.57;13.67;;;;;;;-143.84;78.24;44323.66;5091696;28;20482;-78
2023/01/10 11:11:38;;;;;;;31.63;15.33;;;;;;;-143.84;78.54;44239.91;5090677;28;20534;-78
2023/01/10 11:14:07;;;;;;;29.30;14.80;;;;;;;-143.84;78.68;44173.25;5091708;28;20943;-78
2023/01/10 11:16:38;;;;;;;24.77;13.60;;;;;;;-143.84;78.78;44249.41;5091734;28;20435;-78
2023/01/10 11:19:16;;;;;;;28.87;13.30;;;;;;;-143.84;77.41;44514.03;5091982;28;20440;-78
2023/01/10 11:21:48;;;;;;;26.03;14.10;;;;;;;-143.84;76.58;44723.47;5091890;28;20551;-78
2023/01/10 11:24:36;;;;;;;45.50;14.50;;;;;;;-143.84;77.03;44601.63;5091889;28;20428;-78